Meteorología y climatología de Navarra
Datos de la estación - Meteo Navarra

Estación de Gorramendi GN

Altitud 1071 m.


Datos desde el 12/09/2019 hasta el 13/09/2019 en horario solar
Los datos son PROVISIONALES

Anterior Página 1 de 1 Siguiente Descargar: Formato para Excel 2000 o superior   Formato csv   Formato para OpenOffice Calc
Fecha Temperatura Humedad relativa Radiación global Insolación Precipitación Vel. viento 10 m Vel. viento 10 m Dir. viento 10 m
ºC % W/m² s l/m² m/s km/h º
12/09/2019 0:00 9.7 75 0.0 0 0.0 7.7 27.6 62
12/09/2019 0:10 9.8 75 0.0 0 0.0 8.0 28.8 67
12/09/2019 0:20 10.0 73 0.0 0 0.0 9.0 32.3 66
12/09/2019 0:30 10.1 71 0.0 0 0.0 9.3 33.5 63
12/09/2019 0:40 10.1 70 0.0 0 0.0 9.4 34.0 65
12/09/2019 0:50 10.3 68 0.0 0 0.0 9.2 33.0 63
12/09/2019 1:00 10.4 73 0.0 0 0.0 9.2 33.1 67
12/09/2019 1:10 10.3 77 0.0 0 0.0 9.1 32.7 70
12/09/2019 1:20 10.2 77 0.0 0 0.0 8.4 30.3 71
12/09/2019 1:30 10.2 76 0.0 0 0.0 8.8 31.8 69
12/09/2019 1:40 10.2 77 0.0 0 0.0 9.0 32.4 67
12/09/2019 1:50 10.0 76 0.0 0 0.0 9.6 34.5 69
12/09/2019 2:00 10.0 75 0.0 0 0.0 10.0 35.8 68
12/09/2019 2:10 10.0 78 0.0 0 0.0 9.1 32.9 72
12/09/2019 2:20 9.9 78 0.0 0 0.0 8.4 30.3 70
12/09/2019 2:30 9.9 84 0.0 0 0.0 9.1 32.8 69
12/09/2019 2:40 9.8 88 0.0 0 0.0 9.2 33.2 74
12/09/2019 2:50 10.0 87 0.0 0 0.0 9.3 33.4 76
12/09/2019 3:00 10.3 85 0.0 0 0.0 8.8 31.8 76
12/09/2019 3:10 10.2 85 0.0 0 0.0 8.1 29.2 75
12/09/2019 3:20 10.0 86 0.0 0 0.0 7.9 28.4 80
12/09/2019 3:30 9.8 87 0.0 0 0.0 7.2 25.8 78
12/09/2019 3:40 9.8 87 0.0 0 0.0 6.9 25.0 77
12/09/2019 3:50 10.0 85 0.0 0 0.0 7.8 28.2 88
12/09/2019 4:00 10.2 83 0.0 0 0.0 8.8 31.7 89
12/09/2019 4:10 10.9 77 0.0 0 0.0 9.5 34.1 88
12/09/2019 4:20 10.7 79 0.0 0 0.0 8.8 31.8 90
12/09/2019 4:30 10.5 81 0.0 0 0.0 9.2 33.1 87
12/09/2019 4:40 10.4 80 0.0 0 0.0 9.3 33.4 84
12/09/2019 4:50 10.2 83 0.0 0 0.0 8.3 29.7 86
12/09/2019 5:00 10.2 82 0.0 0 0.0 7.9 28.3 90
12/09/2019 5:10 10.0 85 0.0 0 0.0 7.3 26.2 92
12/09/2019 5:20 9.9 85 0.0 0 0.0 7.2 26.0 89
12/09/2019 5:30 10.0 84 0.0 0 0.0 8.1 29.1 92
12/09/2019 5:40 10.6 78 0.0 0 0.0 8.2 29.3 97
12/09/2019 5:50 10.5 79 10.7 0 0.0 8.3 30.0 98
12/09/2019 6:00 10.6 78 35.8 458 0.0 8.3 29.8 97
12/09/2019 6:10 10.8 78 60.5 600 0.0 8.2 29.4 101
12/09/2019 6:20 11.0 77 89.6 600 0.0 8.7 31.1 101
12/09/2019 6:30 11.3 76 121.1 600 0.0 8.7 31.4 109
12/09/2019 6:40 11.2 78 153.4 600 0.0 8.5 30.5 113
12/09/2019 6:50 11.3 78 186.1 600 0.0 9.5 34.1 113
12/09/2019 7:00 11.8 74 219.2 600 0.0 10.3 37.0 113
12/09/2019 7:10 12.1 71 252.6 600 0.0 10.0 36.1 112
12/09/2019 7:20 12.3 71 283.0 600 0.0 9.5 34.1 113
12/09/2019 7:30 12.2 72 319.1 600 0.0 9.1 32.9 116
12/09/2019 7:40 12.4 71 354.0 600 0.0 9.5 34.1 118
12/09/2019 7:50 12.5 70 386.4 600 0.0 10.3 37.0 118
12/09/2019 8:00 12.6 71 418.6 600 0.0 9.8 35.4 117
12/09/2019 8:10 12.9 67 450.7 600 0.0 10.8 38.9 114
12/09/2019 8:20 13.1 67 481.0 600 0.0 10.0 36.1 116
12/09/2019 8:30 13.3 67 510.2 600 0.0 9.5 34.3 116
12/09/2019 8:40 13.4 65 538.7 600 0.0 10.2 36.6 114
12/09/2019 8:50 13.5 65 566.1 600 0.0 10.5 37.7 117
12/09/2019 9:00 13.6 65 592.5 600 0.0 10.0 36.0 121
12/09/2019 9:10 13.8 65 617.3 600 0.0 9.9 35.7 124
12/09/2019 9:20 13.9 63 641.9 600 0.0 10.7 38.4 123
12/09/2019 9:30 14.1 63 665.9 600 0.0 10.4 37.5 120
12/09/2019 9:40 14.1 62 688.1 600 0.0 10.5 37.8 123
12/09/2019 9:50 14.3 61 709.3 600 0.0 10.0 36.1 120
12/09/2019 10:00 14.5 59 729.8 600 0.0 9.7 34.9 122
12/09/2019 10:10 14.6 60 748.5 600 0.0 9.7 34.9 123
12/09/2019 10:20 14.6 59 765.6 600 0.0 9.8 35.3 121
12/09/2019 10:30 14.8 60 781.4 600 0.0 9.6 34.4 118
12/09/2019 10:40 14.9 60 794.8 600 0.0 9.1 32.6 116
12/09/2019 10:50 15.0 58 806.0 600 0.0 8.4 30.1 114
12/09/2019 11:00 15.2 59 815.0 600 0.0 6.7 24.2 119
12/09/2019 11:10 15.2 59 824.0 600 0.0 6.9 24.8 117
12/09/2019 11:20 15.3 58 830.0 600 0.0 6.5 23.4 122
12/09/2019 11:30 15.3 59 835.0 600 0.0 7.3 26.1 118
12/09/2019 11:40 15.3 58 839.0 600 0.0 8.1 29.2 111
12/09/2019 11:50 15.5 60 840.0 600 0.0 6.7 23.9 124
12/09/2019 12:00 15.5 62 839.0 600 0.0 7.3 26.3 124
12/09/2019 12:10 15.5 64 836.0 600 0.0 5.9 21.3 109
12/09/2019 12:20 15.5 64 831.0 600 0.0 6.7 24.1 122
12/09/2019 12:30 15.6 62 824.0 600 0.0 5.5 19.8 107
12/09/2019 12:40 15.6 64 816.0 600 0.0 5.6 20.0 108
12/09/2019 12:50 15.7 65 807.0 600 0.0 5.6 20.1 99
12/09/2019 13:00 15.9 69 797.5 600 0.0 4.5 16.3 91
12/09/2019 13:10 15.9 69 784.3 600 0.0 4.6 16.7 95
12/09/2019 13:20 15.8 70 770.4 600 0.0 4.2 15.3 111
12/09/2019 13:30 15.9 71 754.9 600 0.0 3.7 13.4 104
12/09/2019 13:40 16.0 71 738.5 600 0.0 3.8 13.8 86
12/09/2019 13:50 15.8 72 721.0 600 0.0 4.1 14.9 54
12/09/2019 14:00 15.9 71 701.4 600 0.0 3.6 12.9 59
12/09/2019 14:10 16.0 70 681.3 600 0.0 4.5 16.0 99
12/09/2019 14:20 15.8 71 659.6 600 0.0 4.2 15.0 83
12/09/2019 14:30 15.9 71 637.0 600 0.0 4.2 15.2 90
12/09/2019 14:40 15.9 71 614.1 600 0.0 4.5 16.2 79
12/09/2019 14:50 16.0 70 588.8 600 0.0 3.9 14.0 79
12/09/2019 15:00 16.1 70 561.6 600 0.0 4.3 15.4 105
12/09/2019 15:10 15.8 71 534.5 600 0.0 4.1 14.7 110
12/09/2019 15:20 15.9 71 507.6 600 0.0 5.0 18.0 101
12/09/2019 15:30 15.7 72 480.2 600 0.0 5.3 19.2 98
12/09/2019 15:40 15.7 73 450.0 600 0.0 4.2 15.2 94
12/09/2019 15:50 15.9 71 419.6 600 0.0 4.3 15.6 97
12/09/2019 16:00 15.7 69 389.3 600 0.0 4.6 16.7 91
12/09/2019 16:10 15.8 69 358.2 600 0.0 5.5 19.7 83
12/09/2019 16:20 15.7 69 325.9 600 0.0 6.5 23.2 82
12/09/2019 16:30 15.6 69 294.4 600 0.0 6.1 22.1 83
12/09/2019 16:40 15.7 70 262.2 600 0.0 5.3 19.2 81
12/09/2019 16:50 15.5 71 231.1 600 0.0 6.9 24.8 86
12/09/2019 17:00 15.4 72 200.4 600 0.0 7.8 28.2 87
12/09/2019 17:10 15.3 73 168.7 600 0.0 7.0 25.2 82
12/09/2019 17:20 15.2 73 138.2 600 0.0 7.2 25.8 93
12/09/2019 17:30 15.1 73 108.9 600 0.0 6.5 23.4 87
12/09/2019 17:40 15.1 72 81.6 600 0.0 6.8 24.4 88
12/09/2019 17:50 14.9 73 56.1 600 0.0 7.0 25.1 84
12/09/2019 18:00 14.8 73 34.1 350 0.0 8.4 30.2 95
12/09/2019 18:10 14.8 74 19.7 0 0.0 8.5 30.5 95
12/09/2019 18:20 14.7 74 3.0 0 0.0 9.5 34.2 100
12/09/2019 18:30 14.7 74 0.0 0 0.0 9.3 33.6 98
12/09/2019 18:40 14.6 75 0.0 0 0.0 9.3 33.3 98
12/09/2019 18:50 14.6 74 0.0 0 0.0 9.5 34.1 95
12/09/2019 19:00 14.6 75 0.0 0 0.0 9.6 34.6 98
12/09/2019 19:10 14.6 74 0.0 0 0.0 9.4 33.7 101
12/09/2019 19:20 14.6 74 0.0 0 0.0 8.8 31.8 104
12/09/2019 19:30 14.6 74 0.0 0 0.0 8.4 30.1 96
12/09/2019 19:40 14.5 73 0.0 0 0.0 8.4 30.1 95
12/09/2019 19:50 14.6 73 0.0 0 0.0 8.4 30.4 102
12/09/2019 20:00 14.7 71 0.0 0 0.0 9.2 33.0 100
12/09/2019 20:10 14.7 71 0.0 0 0.0 8.8 31.6 101
12/09/2019 20:20 14.7 70 0.0 0 0.0 9.3 33.4 103
12/09/2019 20:30 14.8 69 0.0 0 0.0 9.6 34.6 109
12/09/2019 20:40 14.8 69 0.0 0 0.0 9.8 35.2 108
12/09/2019 20:50 14.9 69 0.0 0 0.0 10.1 36.4 111
12/09/2019 21:00 14.9 68 0.0 0 0.0 9.6 34.7 107
12/09/2019 21:10 15.0 68 0.0 0 0.0 9.6 34.6 111
12/09/2019 21:20 15.0 67 0.0 0 0.0 9.8 35.4 110
12/09/2019 21:30 14.9 67 0.0 0 0.0 9.5 34.2 111
12/09/2019 21:40 14.7 68 0.0 0 0.0 9.9 35.8 109
12/09/2019 21:50 14.9 67 0.0 0 0.0 10.0 36.1 112
12/09/2019 22:00 14.8 68 0.0 0 0.0 10.0 36.1 116
12/09/2019 22:10 14.8 68 0.0 0 0.0 10.3 36.9 117
12/09/2019 22:20 14.9 68 0.0 0 0.0 11.1 40.1 116
12/09/2019 22:30 14.7 69 0.0 0 0.0 10.9 39.1 117
12/09/2019 22:40 14.6 69 0.0 0 0.0 11.3 40.5 116
12/09/2019 22:50 14.7 68 0.0 0 0.0 11.5 41.3 114
12/09/2019 23:00 14.5 69 0.0 0 0.0 11.1 39.8 111
12/09/2019 23:10 14.4 70 0.0 0 0.0 11.2 40.2 108
12/09/2019 23:20 14.3 70 0.0 0 0.0 11.0 39.5 109
12/09/2019 23:30 14.5 69 0.0 0 0.0 10.6 38.0 110
12/09/2019 23:40 14.5 67 0.0 0 0.0 10.6 38.2 109
12/09/2019 23:50 14.5 68 0.0 0 0.0 10.1 36.3 109
Anterior Página 1 de 1 Siguiente
Los datos de precipitación registrados en estaciones que están en cumbres son inferiores a lo real, como consecuencia del efecto del viento y de la nieve.


NOTA: Tipo de datos según el color:
   - Valores diarios o 10 minutos correctos
   - Valores diarios calculados a partir de un número de datos 10 minutos menor que 144 y mayor que 120, o de un número de datos semihorarios menor que 48 y mayor que 40 (caso de las estaciones de Riegos de Navarra y del MARM)
   - Valores diez minutos estimados


Contacto        Enlaces        Aviso legal